SAS241 GMMN-GCTS
Flight info
| Callsign | SAS241 |
|---|---|
| Flight time | 1h 47m |
| Altitude | 33000 |
| Route | NIKZO UR975 MAGAV/N0465F350 UR975 ADM UN869 RUSIK |
| Aircraft | A320/M-SDE3FGHIRWY/LB1 |
Departure
| Time | 2026-05-04 17:43 |
|---|---|
| Airport | Mohammed V International Airport (GMMN) |
Arrival
| Time | 2026-05-04 19:30 |
|---|---|
| Airport | Tenerife Sur Airport (GCTS) |
| Time | Latitude | Longitude | Altitude | Speed | Heading |
|---|---|---|---|---|---|
| 2026-05-04 17:18 | 33.36609 | -7.57976 | 654 ft | 0 kts | 74° |
| 2026-05-04 17:29 | 33.36600 | -7.58018 | 654 ft | 4 kts | 76° |
| 2026-05-04 17:30 | 33.36585 | -7.58074 | 653 ft | 1 kts | 64° |
| 2026-05-04 17:31 | 33.36588 | -7.58099 | 654 ft | 0 kts | 154° |
| 2026-05-04 17:31 | 33.36581 | -7.58095 | 653 ft | 1 kts | 154° |
| 2026-05-04 17:32 | 33.36579 | -7.58093 | 657 ft | 0 kts | 154° |
| 2026-05-04 17:34 | 33.36578 | -7.58093 | 656 ft | 0 kts | 154° |
| 2026-05-04 17:35 | 33.36492 | -7.58101 | 653 ft | 6 kts | 208° |
| 2026-05-04 17:35 | 33.36423 | -7.58139 | 653 ft | 13 kts | 185° |
| 2026-05-04 17:35 | 33.36330 | -7.58113 | 653 ft | 12 kts | 163° |
| 2026-05-04 17:36 | 33.36266 | -7.58140 | 653 ft | 10 kts | 251° |
| 2026-05-04 17:36 | 33.36246 | -7.58213 | 654 ft | 8 kts | 243° |
| 2026-05-04 17:36 | 33.36201 | -7.58239 | 652 ft | 8 kts | 176° |
| 2026-05-04 17:36 | 33.36143 | -7.58220 | 652 ft | 12 kts | 164° |
| 2026-05-04 17:37 | 33.36025 | -7.58185 | 652 ft | 21 kts | 166° |
| 2026-05-04 17:37 | 33.35895 | -7.58135 | 652 ft | 19 kts | 163° |
| 2026-05-04 17:37 | 33.35778 | -7.58095 | 652 ft | 17 kts | 164° |
| 2026-05-04 17:37 | 33.35669 | -7.58058 | 652 ft | 15 kts | 163° |
| 2026-05-04 17:38 | 33.35571 | -7.58025 | 652 ft | 14 kts | 165° |
| 2026-05-04 17:38 | 33.35483 | -7.57995 | 652 ft | 12 kts | 162° |
| 2026-05-04 17:38 | 33.35406 | -7.57969 | 652 ft | 11 kts | 165° |
| 2026-05-04 17:38 | 33.35338 | -7.57948 | 655 ft | 9 kts | 167° |
| 2026-05-04 17:39 | 33.35254 | -7.58001 | 653 ft | 6 kts | 248° |
| 2026-05-04 17:39 | 33.35242 | -7.58062 | 653 ft | 11 kts | 256° |
| 2026-05-04 17:39 | 33.35221 | -7.58144 | 654 ft | 9 kts | 253° |
| 2026-05-04 17:40 | 33.35212 | -7.58218 | 654 ft | 11 kts | 275° |
| 2026-05-04 17:40 | 33.35269 | -7.58279 | 655 ft | 0 kts | 343° |
| 2026-05-04 17:41 | 33.35270 | -7.58279 | 654 ft | 0 kts | 343° |
| 2026-05-04 17:42 | 33.35277 | -7.58282 | 654 ft | 4 kts | 343° |
| 2026-05-04 17:42 | 33.35504 | -7.58358 | 647 ft | 71 kts | 344° |
| 2026-05-04 17:42 | 33.36184 | -7.58587 | 647 ft | 128 kts | 343° |
| 2026-05-04 17:42 | 33.37188 | -7.58912 | 733 ft | 163 kts | 347° |
| 2026-05-04 17:43 | 33.38290 | -7.59262 | 1266 ft | 172 kts | 346° |
| 2026-05-04 17:43 | 33.39524 | -7.59666 | 1639 ft | 196 kts | 347° |
| 2026-05-04 17:43 | 33.40917 | -7.60142 | 2057 ft | 217 kts | 345° |
| 2026-05-04 17:43 | 33.42309 | -7.60910 | 2811 ft | 226 kts | 327° |
| 2026-05-04 17:44 | 33.43457 | -7.62244 | 3569 ft | 235 kts | 306° |
| 2026-05-04 17:44 | 33.44177 | -7.64037 | 4366 ft | 243 kts | 285° |
| 2026-05-04 17:44 | 33.44324 | -7.66058 | 5195 ft | 248 kts | 264° |
| 2026-05-04 17:44 | 33.43853 | -7.68041 | 6042 ft | 252 kts | 244° |
| 2026-05-04 17:45 | 33.42816 | -7.69693 | 6924 ft | 253 kts | 223° |
| 2026-05-04 17:45 | 33.41494 | -7.71091 | 7844 ft | 251 kts | 225° |
| 2026-05-04 17:45 | 33.40264 | -7.72566 | 8784 ft | 249 kts | 229° |
| 2026-05-04 17:45 | 33.39129 | -7.74137 | 9660 ft | 250 kts | 232° |
| 2026-05-04 17:46 | 33.38082 | -7.75815 | 10448 ft | 252 kts | 236° |
| 2026-05-04 17:46 | 33.37129 | -7.77604 | 11166 ft | 256 kts | 240° |
| 2026-05-04 17:46 | 33.36291 | -7.79460 | 11915 ft | 258 kts | 244° |
| 2026-05-04 17:46 | 33.35544 | -7.81433 | 12682 ft | 259 kts | 249° |
| 2026-05-04 17:47 | 33.34880 | -7.83427 | 13423 ft | 263 kts | 243° |
| 2026-05-04 17:47 | 33.33772 | -7.85255 | 13776 ft | 284 kts | 229° |
| 2026-05-04 17:47 | 33.32256 | -7.86923 | 13941 ft | 308 kts | 222° |
| 2026-05-04 17:47 | 33.30497 | -7.88567 | 14067 ft | 332 kts | 219° |
| 2026-05-04 17:48 | 33.28534 | -7.90196 | 14190 ft | 355 kts | 210° |
| 2026-05-04 17:48 | 33.26218 | -7.91373 | 14326 ft | 374 kts | 204° |
| 2026-05-04 17:48 | 33.23764 | -7.92527 | 14763 ft | 382 kts | 204° |
| 2026-05-04 17:48 | 33.21268 | -7.93686 | 15317 ft | 385 kts | 204° |
| 2026-05-04 17:49 | 33.18752 | -7.94846 | 15885 ft | 388 kts | 204° |
| 2026-05-04 17:49 | 33.16244 | -7.96001 | 16446 ft | 391 kts | 204° |
| 2026-05-04 17:49 | 33.13689 | -7.97182 | 17009 ft | 394 kts | 204° |
| 2026-05-04 17:49 | 33.11129 | -7.98372 | 17561 ft | 396 kts | 205° |
| 2026-05-04 17:50 | 33.08546 | -7.99578 | 18112 ft | 399 kts | 205° |
| 2026-05-04 17:50 | 33.05939 | -8.00795 | 18618 ft | 402 kts | 205° |
| 2026-05-04 17:50 | 33.03331 | -8.02011 | 19081 ft | 404 kts | 205° |
| 2026-05-04 17:50 | 33.00725 | -8.03221 | 19537 ft | 407 kts | 205° |
| 2026-05-04 17:51 | 32.98073 | -8.04449 | 19996 ft | 409 kts | 205° |
| 2026-05-04 17:51 | 32.95435 | -8.05671 | 20457 ft | 411 kts | 205° |
| 2026-05-04 17:51 | 32.92764 | -8.06909 | 20910 ft | 414 kts | 205° |
| 2026-05-04 17:51 | 32.90080 | -8.08151 | 21357 ft | 416 kts | 205° |
| 2026-05-04 17:52 | 32.87367 | -8.09404 | 21773 ft | 418 kts | 205° |
| 2026-05-04 17:52 | 32.84645 | -8.10656 | 22195 ft | 421 kts | 205° |
| 2026-05-04 17:52 | 32.81899 | -8.11921 | 22590 ft | 423 kts | 205° |
| 2026-05-04 17:52 | 32.79144 | -8.13190 | 22991 ft | 425 kts | 205° |
| 2026-05-04 17:53 | 32.76412 | -8.14449 | 23381 ft | 428 kts | 205° |
| 2026-05-04 17:53 | 32.73628 | -8.15733 | 23745 ft | 430 kts | 205° |
| 2026-05-04 17:53 | 32.70824 | -8.17028 | 24080 ft | 432 kts | 206° |
| 2026-05-04 17:53 | 32.67997 | -8.18340 | 24420 ft | 434 kts | 206° |
| 2026-05-04 17:54 | 32.65177 | -8.19655 | 24742 ft | 436 kts | 206° |
| 2026-05-04 17:54 | 32.62386 | -8.20962 | 25057 ft | 438 kts | 206° |
| 2026-05-04 17:54 | 32.59547 | -8.22290 | 25355 ft | 439 kts | 206° |
| 2026-05-04 17:54 | 32.56686 | -8.23624 | 25654 ft | 441 kts | 205° |
| 2026-05-04 17:55 | 32.53815 | -8.24958 | 25938 ft | 443 kts | 205° |
| 2026-05-04 17:55 | 32.50931 | -8.26292 | 26215 ft | 445 kts | 205° |
| 2026-05-04 17:55 | 32.48075 | -8.27614 | 26506 ft | 447 kts | 205° |
| 2026-05-04 17:55 | 32.45164 | -8.28958 | 26777 ft | 449 kts | 205° |
| 2026-05-04 17:56 | 32.42252 | -8.30303 | 27035 ft | 450 kts | 205° |
| 2026-05-04 17:56 | 32.39323 | -8.31660 | 27371 ft | 450 kts | 205° |
| 2026-05-04 17:56 | 32.36402 | -8.33014 | 27787 ft | 449 kts | 205° |
| 2026-05-04 17:56 | 32.33525 | -8.34348 | 28170 ft | 448 kts | 206° |
| 2026-05-04 17:57 | 32.30629 | -8.35690 | 28621 ft | 446 kts | 206° |
| 2026-05-04 17:57 | 32.27745 | -8.37023 | 29051 ft | 444 kts | 206° |
| 2026-05-04 17:57 | 32.24857 | -8.38355 | 29468 ft | 443 kts | 206° |
| 2026-05-04 17:57 | 32.22017 | -8.39659 | 29871 ft | 442 kts | 206° |
| 2026-05-04 17:58 | 32.19155 | -8.40971 | 30248 ft | 440 kts | 206° |
| 2026-05-04 17:58 | 32.16295 | -8.42287 | 30607 ft | 439 kts | 206° |
| 2026-05-04 17:58 | 32.13454 | -8.43597 | 30992 ft | 437 kts | 207° |
| 2026-05-04 17:58 | 32.10624 | -8.44898 | 31375 ft | 434 kts | 207° |
| 2026-05-04 17:59 | 32.07865 | -8.46219 | 31762 ft | 430 kts | 210° |
| 2026-05-04 17:59 | 32.05151 | -8.47670 | 32150 ft | 425 kts | 212° |
| 2026-05-04 17:59 | 31.99902 | -8.50743 | 32944 ft | 416 kts | 214° |
| 2026-05-04 18:00 | 31.97318 | -8.52296 | 33017 ft | 417 kts | 214° |
| 2026-05-04 18:00 | 31.92064 | -8.55400 | 33020 ft | 428 kts | 213° |
| 2026-05-04 18:01 | 31.86667 | -8.58483 | 33007 ft | 436 kts | 213° |
| 2026-05-04 18:01 | 31.81176 | -8.61574 | 33004 ft | 437 kts | 213° |
| 2026-05-04 18:02 | 31.72987 | -8.66196 | 32995 ft | 435 kts | 213° |
| 2026-05-04 18:02 | 31.67525 | -8.69291 | 32994 ft | 434 kts | 213° |
| 2026-05-04 18:03 | 31.62102 | -8.72364 | 32994 ft | 434 kts | 213° |
| 2026-05-04 18:03 | 31.56643 | -8.75459 | 32991 ft | 434 kts | 213° |
| 2026-05-04 18:04 | 31.51209 | -8.78506 | 32994 ft | 435 kts | 212° |
| 2026-05-04 18:05 | 31.42861 | -8.82698 | 32998 ft | 437 kts | 210° |
| 2026-05-04 18:05 | 31.37242 | -8.85419 | 33008 ft | 435 kts | 211° |
| 2026-05-04 18:06 | 31.28870 | -8.89578 | 33019 ft | 435 kts | 211° |
| 2026-05-04 18:06 | 31.23343 | -8.92353 | 33018 ft | 434 kts | 211° |
| 2026-05-04 18:07 | 31.17770 | -8.95126 | 32992 ft | 434 kts | 211° |
| 2026-05-04 18:07 | 31.12237 | -8.97869 | 33010 ft | 433 kts | 211° |
| 2026-05-04 18:08 | 31.06675 | -9.00629 | 33009 ft | 433 kts | 211° |
| 2026-05-04 18:08 | 31.01152 | -9.03368 | 33010 ft | 433 kts | 211° |
| 2026-05-04 18:09 | 30.90067 | -9.08864 | 32974 ft | 432 kts | 211° |
| 2026-05-04 18:10 | 30.84528 | -9.11609 | 32965 ft | 432 kts | 211° |
| 2026-05-04 18:10 | 30.79014 | -9.14340 | 32965 ft | 432 kts | 211° |
| 2026-05-04 18:11 | 30.73467 | -9.17080 | 32953 ft | 432 kts | 211° |
| 2026-05-04 18:11 | 30.67964 | -9.19808 | 32954 ft | 431 kts | 212° |
| 2026-05-04 18:12 | 30.62502 | -9.22636 | 32901 ft | 431 kts | 212° |
| 2026-05-04 18:12 | 30.57003 | -9.25524 | 32939 ft | 431 kts | 212° |
| 2026-05-04 18:13 | 30.51555 | -9.28358 | 32943 ft | 431 kts | 212° |
| 2026-05-04 18:14 | 30.43321 | -9.32611 | 32940 ft | 430 kts | 212° |
| 2026-05-04 18:14 | 30.37915 | -9.35500 | 32942 ft | 424 kts | 219° |
| 2026-05-04 18:15 | 30.33992 | -9.40183 | 32942 ft | 402 kts | 245° |
| 2026-05-04 18:15 | 30.31604 | -9.46022 | 32937 ft | 401 kts | 247° |
| 2026-05-04 18:16 | 30.29260 | -9.51856 | 32956 ft | 401 kts | 247° |
| 2026-05-04 18:16 | 30.26909 | -9.57708 | 32955 ft | 401 kts | 247° |
| 2026-05-04 18:17 | 30.23378 | -9.66474 | 32963 ft | 401 kts | 247° |
| 2026-05-04 18:18 | 30.19823 | -9.75268 | 32977 ft | 401 kts | 247° |
| 2026-05-04 18:18 | 30.17469 | -9.81063 | 32976 ft | 401 kts | 247° |
| 2026-05-04 18:19 | 30.13910 | -9.89831 | 33000 ft | 401 kts | 247° |
| 2026-05-04 18:19 | 30.11547 | -9.95641 | 33011 ft | 401 kts | 247° |
| 2026-05-04 18:20 | 30.09177 | -10.01469 | 33010 ft | 401 kts | 247° |
| 2026-05-04 18:20 | 30.06791 | -10.07302 | 33010 ft | 401 kts | 247° |
| 2026-05-04 18:21 | 30.04811 | -10.12139 | 33013 ft | 401 kts | 247° |
| 2026-05-04 18:21 | 30.02042 | -10.18919 | 33019 ft | 401 kts | 247° |
| 2026-05-04 18:22 | 29.99653 | -10.24738 | 32994 ft | 401 kts | 246° |
| 2026-05-04 18:22 | 29.97661 | -10.29585 | 33031 ft | 402 kts | 246° |
| 2026-05-04 18:23 | 29.95259 | -10.35429 | 33030 ft | 402 kts | 246° |
| 2026-05-04 18:23 | 29.92869 | -10.41233 | 33028 ft | 402 kts | 246° |
| 2026-05-04 18:24 | 29.90460 | -10.47074 | 33031 ft | 402 kts | 246° |
| 2026-05-04 18:24 | 29.88056 | -10.52901 | 33031 ft | 402 kts | 246° |
| 2026-05-04 18:25 | 29.85660 | -10.58700 | 33035 ft | 402 kts | 246° |
| 2026-05-04 18:25 | 29.83248 | -10.64512 | 33035 ft | 402 kts | 246° |
| 2026-05-04 18:26 | 29.80830 | -10.70341 | 33035 ft | 402 kts | 246° |
| 2026-05-04 18:26 | 29.78427 | -10.76139 | 33041 ft | 402 kts | 246° |
| 2026-05-04 18:27 | 29.76003 | -10.81958 | 33041 ft | 402 kts | 246° |
| 2026-05-04 18:27 | 29.73574 | -10.87773 | 33052 ft | 402 kts | 246° |
| 2026-05-04 18:28 | 29.71164 | -10.93545 | 33051 ft | 402 kts | 246° |
| 2026-05-04 18:28 | 29.68737 | -10.99340 | 33054 ft | 402 kts | 245° |
| 2026-05-04 18:29 | 29.66309 | -11.05142 | 33052 ft | 402 kts | 245° |
| 2026-05-04 18:29 | 29.63871 | -11.10952 | 33025 ft | 402 kts | 245° |
| 2026-05-04 18:30 | 29.60224 | -11.19629 | 33035 ft | 403 kts | 245° |
| 2026-05-04 18:31 | 29.57776 | -11.25438 | 33040 ft | 403 kts | 245° |
| 2026-05-04 18:31 | 29.55327 | -11.31241 | 33044 ft | 403 kts | 245° |
| 2026-05-04 18:32 | 29.52889 | -11.37012 | 33042 ft | 403 kts | 245° |
| 2026-05-04 18:32 | 29.50434 | -11.42818 | 33044 ft | 403 kts | 245° |
| 2026-05-04 18:33 | 29.47992 | -11.48583 | 33046 ft | 403 kts | 245° |
| 2026-05-04 18:33 | 29.45531 | -11.54390 | 33048 ft | 403 kts | 245° |
| 2026-05-04 18:34 | 29.43091 | -11.60129 | 33049 ft | 403 kts | 245° |
| 2026-05-04 18:34 | 29.40625 | -11.65920 | 33046 ft | 403 kts | 245° |
| 2026-05-04 18:35 | 29.38161 | -11.71698 | 33042 ft | 403 kts | 245° |
| 2026-05-04 18:35 | 29.35717 | -11.77439 | 33043 ft | 403 kts | 245° |
| 2026-05-04 18:36 | 29.33239 | -11.83221 | 33041 ft | 403 kts | 245° |
| 2026-05-04 18:36 | 29.30781 | -11.88960 | 33043 ft | 403 kts | 245° |
| 2026-05-04 18:37 | 29.28307 | -11.94733 | 33026 ft | 403 kts | 245° |
| 2026-05-04 18:37 | 29.25839 | -12.00485 | 33034 ft | 404 kts | 245° |
| 2026-05-04 18:38 | 29.23356 | -12.06271 | 33043 ft | 404 kts | 245° |
| 2026-05-04 18:38 | 29.20865 | -12.12056 | 33049 ft | 405 kts | 245° |
| 2026-05-04 18:39 | 29.18381 | -12.17804 | 33059 ft | 405 kts | 244° |
| 2026-05-04 18:39 | 29.15883 | -12.23592 | 33062 ft | 405 kts | 245° |
| 2026-05-04 18:40 | 29.13375 | -12.29392 | 33063 ft | 405 kts | 244° |
| 2026-05-04 18:40 | 29.10889 | -12.35135 | 33068 ft | 405 kts | 244° |
| 2026-05-04 18:41 | 29.08384 | -12.40919 | 33085 ft | 405 kts | 244° |
| 2026-05-04 18:41 | 29.05886 | -12.46663 | 33068 ft | 404 kts | 244° |
| 2026-05-04 18:42 | 29.03375 | -12.52424 | 33070 ft | 404 kts | 244° |
| 2026-05-04 18:42 | 29.00884 | -12.58157 | 33068 ft | 404 kts | 244° |
| 2026-05-04 18:43 | 28.98365 | -12.63919 | 33066 ft | 405 kts | 244° |
| 2026-05-04 18:43 | 28.95851 | -12.69669 | 33067 ft | 404 kts | 244° |
| 2026-05-04 18:44 | 28.93334 | -12.75427 | 33067 ft | 404 kts | 244° |
| 2026-05-04 18:44 | 28.90829 | -12.81137 | 33046 ft | 404 kts | 244° |
| 2026-05-04 18:45 | 28.88192 | -12.86825 | 33057 ft | 404 kts | 242° |
| 2026-05-04 18:45 | 28.85438 | -12.92404 | 33061 ft | 405 kts | 242° |
| 2026-05-04 18:46 | 28.82662 | -12.98009 | 33061 ft | 405 kts | 242° |
| 2026-05-04 18:46 | 28.79927 | -13.03628 | 33064 ft | 405 kts | 242° |
| 2026-05-04 18:47 | 28.77196 | -13.09248 | 33070 ft | 405 kts | 242° |
| 2026-05-04 18:47 | 28.74475 | -13.14839 | 33087 ft | 405 kts | 242° |
| 2026-05-04 18:48 | 28.71734 | -13.20461 | 33079 ft | 405 kts | 242° |
| 2026-05-04 18:48 | 28.68994 | -13.26077 | 33078 ft | 405 kts | 242° |
| 2026-05-04 18:49 | 28.66259 | -13.31661 | 33080 ft | 405 kts | 242° |
| 2026-05-04 18:49 | 28.63522 | -13.37235 | 33074 ft | 405 kts | 242° |
| 2026-05-04 18:50 | 28.60766 | -13.42846 | 33071 ft | 405 kts | 242° |
| 2026-05-04 18:50 | 28.58036 | -13.48399 | 33069 ft | 405 kts | 242° |
| 2026-05-04 18:51 | 28.55297 | -13.53967 | 33053 ft | 404 kts | 242° |
| 2026-05-04 18:51 | 28.52547 | -13.59565 | 33054 ft | 405 kts | 242° |
| 2026-05-04 18:52 | 28.49790 | -13.65150 | 33052 ft | 404 kts | 242° |
| 2026-05-04 18:52 | 28.47043 | -13.70697 | 33051 ft | 404 kts | 242° |
| 2026-05-04 18:53 | 28.44279 | -13.76279 | 33057 ft | 405 kts | 242° |
| 2026-05-04 18:53 | 28.41521 | -13.81853 | 33057 ft | 405 kts | 242° |
| 2026-05-04 18:54 | 28.38772 | -13.87397 | 33059 ft | 404 kts | 242° |
| 2026-05-04 18:54 | 28.36010 | -13.92959 | 33057 ft | 404 kts | 242° |
| 2026-05-04 18:55 | 28.33242 | -13.98525 | 33053 ft | 403 kts | 242° |
| 2026-05-04 18:55 | 28.29111 | -14.06813 | 33050 ft | 403 kts | 241° |
| 2026-05-04 18:56 | 28.26339 | -14.12362 | 33046 ft | 403 kts | 241° |
| 2026-05-04 18:56 | 28.23584 | -14.17877 | 33045 ft | 404 kts | 241° |
| 2026-05-04 18:57 | 28.20810 | -14.23428 | 33054 ft | 404 kts | 241° |
| 2026-05-04 18:57 | 28.18024 | -14.28986 | 33054 ft | 404 kts | 241° |
| 2026-05-04 18:58 | 28.15251 | -14.34513 | 33055 ft | 404 kts | 241° |
| 2026-05-04 18:58 | 28.12478 | -14.40030 | 33050 ft | 404 kts | 241° |
| 2026-05-04 18:59 | 28.09684 | -14.45585 | 33051 ft | 405 kts | 241° |
| 2026-05-04 18:59 | 28.06910 | -14.51106 | 33053 ft | 404 kts | 241° |
| 2026-05-04 19:00 | 28.04111 | -14.56659 | 33056 ft | 404 kts | 241° |
| 2026-05-04 19:00 | 28.02713 | -14.59415 | 32930 ft | 401 kts | 241° |
| 2026-05-04 19:00 | 28.01491 | -14.61823 | 32149 ft | 401 kts | 241° |
| 2026-05-04 19:01 | 28.00266 | -14.64644 | 31344 ft | 402 kts | 248° |
| 2026-05-04 19:01 | 27.99361 | -14.67663 | 30286 ft | 407 kts | 254° |
| 2026-05-04 19:01 | 27.98690 | -14.70804 | 29026 ft | 412 kts | 255° |
| 2026-05-04 19:01 | 27.98012 | -14.73979 | 27722 ft | 417 kts | 255° |
| 2026-05-04 19:02 | 27.97320 | -14.77188 | 26407 ft | 422 kts | 256° |
| 2026-05-04 19:02 | 27.96623 | -14.80399 | 25095 ft | 427 kts | 256° |
| 2026-05-04 19:02 | 27.95909 | -14.83683 | 23925 ft | 431 kts | 256° |
| 2026-05-04 19:02 | 27.95192 | -14.86968 | 22963 ft | 425 kts | 256° |
| 2026-05-04 19:03 | 27.94486 | -14.90207 | 22007 ft | 421 kts | 256° |
| 2026-05-04 19:03 | 27.93788 | -14.93409 | 21105 ft | 416 kts | 256° |
| 2026-05-04 19:03 | 27.93109 | -14.96532 | 20239 ft | 412 kts | 255° |
| 2026-05-04 19:03 | 27.92428 | -14.99670 | 19713 ft | 412 kts | 255° |
| 2026-05-04 19:04 | 27.91740 | -15.02828 | 19475 ft | 413 kts | 255° |
| 2026-05-04 19:04 | 27.91050 | -15.05996 | 19215 ft | 411 kts | 255° |
| 2026-05-04 19:04 | 27.90371 | -15.09113 | 18541 ft | 406 kts | 255° |
| 2026-05-04 19:04 | 27.89692 | -15.12206 | 18182 ft | 407 kts | 255° |
| 2026-05-04 19:05 | 27.89013 | -15.15284 | 18026 ft | 407 kts | 255° |
| 2026-05-04 19:05 | 27.88326 | -15.18403 | 18059 ft | 409 kts | 255° |
| 2026-05-04 19:05 | 27.87640 | -15.21522 | 18058 ft | 409 kts | 255° |
| 2026-05-04 19:05 | 27.86952 | -15.24645 | 18058 ft | 409 kts | 255° |
| 2026-05-04 19:06 | 27.86263 | -15.27772 | 18058 ft | 409 kts | 255° |
| 2026-05-04 19:06 | 27.85581 | -15.30864 | 18057 ft | 409 kts | 255° |
| 2026-05-04 19:06 | 27.84889 | -15.33998 | 18057 ft | 409 kts | 255° |
| 2026-05-04 19:06 | 27.84200 | -15.37120 | 18057 ft | 409 kts | 255° |
| 2026-05-04 19:07 | 27.83532 | -15.40245 | 18056 ft | 409 kts | 257° |
| 2026-05-04 19:07 | 27.83160 | -15.43398 | 18057 ft | 411 kts | 264° |
| 2026-05-04 19:07 | 27.83160 | -15.46625 | 18058 ft | 413 kts | 271° |
| 2026-05-04 19:07 | 27.83436 | -15.49867 | 18058 ft | 414 kts | 273° |
| 2026-05-04 19:08 | 27.83723 | -15.53111 | 18057 ft | 414 kts | 272° |
| 2026-05-04 19:08 | 27.84000 | -15.56310 | 18058 ft | 414 kts | 272° |
| 2026-05-04 19:08 | 27.84281 | -15.59564 | 18060 ft | 414 kts | 272° |
| 2026-05-04 19:08 | 27.84560 | -15.62804 | 18063 ft | 416 kts | 272° |
| 2026-05-04 19:09 | 27.84840 | -15.66068 | 18063 ft | 415 kts | 272° |
| 2026-05-04 19:09 | 27.85117 | -15.69274 | 18057 ft | 415 kts | 272° |
| 2026-05-04 19:09 | 27.85399 | -15.72528 | 18059 ft | 415 kts | 272° |
| 2026-05-04 19:09 | 27.85680 | -15.75786 | 18059 ft | 415 kts | 272° |
| 2026-05-04 19:10 | 27.85864 | -15.77943 | 18058 ft | 415 kts | 272° |
| 2026-05-04 19:10 | 27.86144 | -15.81198 | 18061 ft | 415 kts | 272° |
| 2026-05-04 19:10 | 27.86420 | -15.84414 | 18062 ft | 415 kts | 272° |
| 2026-05-04 19:10 | 27.86697 | -15.87668 | 18062 ft | 415 kts | 272° |
| 2026-05-04 19:11 | 27.86972 | -15.90918 | 18063 ft | 415 kts | 272° |
| 2026-05-04 19:11 | 27.87335 | -15.95230 | 18060 ft | 415 kts | 272° |
| 2026-05-04 19:11 | 27.87519 | -15.97427 | 18060 ft | 415 kts | 272° |
| 2026-05-04 19:11 | 27.87790 | -16.00673 | 18065 ft | 415 kts | 272° |
| 2026-05-04 19:12 | 27.88058 | -16.03887 | 18062 ft | 415 kts | 272° |
| 2026-05-04 19:12 | 27.88601 | -16.10400 | 18054 ft | 416 kts | 272° |
| 2026-05-04 19:12 | 27.88871 | -16.13661 | 18054 ft | 416 kts | 272° |
| 2026-05-04 19:13 | 27.89141 | -16.16926 | 18054 ft | 416 kts | 272° |
| 2026-05-04 19:13 | 27.89407 | -16.20140 | 18054 ft | 416 kts | 272° |
| 2026-05-04 19:13 | 27.89675 | -16.23396 | 17982 ft | 414 kts | 272° |
| 2026-05-04 19:13 | 27.89716 | -16.26601 | 17239 ft | 402 kts | 259° |
| 2026-05-04 19:14 | 27.88918 | -16.29594 | 16399 ft | 396 kts | 246° |
| 2026-05-04 19:14 | 27.87858 | -16.32469 | 15548 ft | 394 kts | 246° |
| 2026-05-04 19:14 | 27.86804 | -16.35277 | 14758 ft | 392 kts | 247° |
| 2026-05-04 19:14 | 27.86112 | -16.38255 | 13992 ft | 392 kts | 262° |
| 2026-05-04 19:15 | 27.86031 | -16.41344 | 13118 ft | 392 kts | 267° |
| 2026-05-04 19:15 | 27.86018 | -16.44424 | 12252 ft | 391 kts | 268° |
| 2026-05-04 19:15 | 27.86015 | -16.47497 | 11404 ft | 390 kts | 268° |
| 2026-05-04 19:15 | 27.86014 | -16.50523 | 10581 ft | 389 kts | 268° |
| 2026-05-04 19:16 | 27.86011 | -16.53573 | 9745 ft | 388 kts | 268° |
| 2026-05-04 19:16 | 27.86008 | -16.56626 | 8879 ft | 386 kts | 269° |
| 2026-05-04 19:16 | 27.86002 | -16.59638 | 8214 ft | 379 kts | 269° |
| 2026-05-04 19:16 | 27.85994 | -16.62543 | 8082 ft | 358 kts | 269° |
| 2026-05-04 19:17 | 27.85985 | -16.65253 | 7962 ft | 339 kts | 268° |
| 2026-05-04 19:17 | 27.85976 | -16.67846 | 7839 ft | 321 kts | 268° |
| 2026-05-04 19:17 | 27.85964 | -16.70321 | 7718 ft | 306 kts | 268° |
| 2026-05-04 19:17 | 27.85953 | -16.72673 | 7597 ft | 293 kts | 269° |
| 2026-05-04 19:18 | 27.85944 | -16.74905 | 7474 ft | 281 kts | 269° |
| 2026-05-04 19:18 | 27.85932 | -16.77090 | 7207 ft | 275 kts | 269° |
| 2026-05-04 19:18 | 27.85920 | -16.79243 | 6827 ft | 274 kts | 269° |
| 2026-05-04 19:18 | 27.85903 | -16.81396 | 6443 ft | 272 kts | 267° |
| 2026-05-04 19:19 | 27.85610 | -16.83470 | 6105 ft | 268 kts | 253° |
| 2026-05-04 19:19 | 27.84950 | -16.85389 | 5979 ft | 256 kts | 247° |
| 2026-05-04 19:19 | 27.84261 | -16.87214 | 5735 ft | 250 kts | 247° |
| 2026-05-04 19:19 | 27.83586 | -16.89017 | 5376 ft | 248 kts | 248° |
| 2026-05-04 19:20 | 27.82915 | -16.90818 | 4998 ft | 248 kts | 248° |
| 2026-05-04 19:20 | 27.82247 | -16.92605 | 4443 ft | 246 kts | 248° |
| 2026-05-04 19:20 | 27.81579 | -16.94383 | 3861 ft | 246 kts | 248° |
| 2026-05-04 19:20 | 27.81030 | -16.96202 | 3297 ft | 242 kts | 264° |
| 2026-05-04 19:21 | 27.81130 | -16.98045 | 2738 ft | 237 kts | 290° |
| 2026-05-04 19:21 | 27.81915 | -16.99637 | 2218 ft | 228 kts | 316° |
| 2026-05-04 19:21 | 27.83159 | -17.00647 | 2098 ft | 219 kts | 339° |
| 2026-05-04 19:21 | 27.84637 | -17.01011 | 2101 ft | 219 kts | 1° |
| 2026-05-04 19:22 | 27.86128 | -17.00669 | 2100 ft | 219 kts | 24° |
| 2026-05-04 19:22 | 27.87365 | -16.99670 | 2101 ft | 222 kts | 47° |
| 2026-05-04 19:22 | 27.88308 | -16.98280 | 2101 ft | 223 kts | 51° |
| 2026-05-04 19:22 | 27.89228 | -16.96893 | 2092 ft | 224 kts | 51° |
| 2026-05-04 19:23 | 27.90165 | -16.95458 | 2098 ft | 228 kts | 56° |
| 2026-05-04 19:23 | 27.90866 | -16.93850 | 2100 ft | 229 kts | 66° |
| 2026-05-04 19:23 | 27.91487 | -16.92182 | 2098 ft | 229 kts | 65° |
| 2026-05-04 19:23 | 27.92082 | -16.90510 | 2093 ft | 229 kts | 68° |
| 2026-05-04 19:24 | 27.92933 | -16.89013 | 2093 ft | 227 kts | 43° |
| 2026-05-04 19:24 | 27.93942 | -16.87704 | 2077 ft | 219 kts | 64° |
| 2026-05-04 19:24 | 27.94390 | -16.86090 | 2084 ft | 213 kts | 71° |
| 2026-05-04 19:24 | 27.94902 | -16.84534 | 2102 ft | 209 kts | 66° |
| 2026-05-04 19:25 | 27.95443 | -16.83004 | 2096 ft | 209 kts | 66° |
| 2026-05-04 19:25 | 27.95982 | -16.81475 | 2084 ft | 208 kts | 67° |
| 2026-05-04 19:25 | 27.96503 | -16.79988 | 2077 ft | 196 kts | 66° |
| 2026-05-04 19:25 | 27.96993 | -16.78591 | 2083 ft | 191 kts | 66° |
| 2026-05-04 19:26 | 27.97480 | -16.77202 | 2087 ft | 189 kts | 67° |
| 2026-05-04 19:26 | 27.97963 | -16.75822 | 2085 ft | 188 kts | 66° |
| 2026-05-04 19:26 | 27.98444 | -16.74449 | 2085 ft | 187 kts | 66° |
| 2026-05-04 19:26 | 27.98919 | -16.73090 | 2086 ft | 188 kts | 66° |
| 2026-05-04 19:27 | 27.99400 | -16.71715 | 2088 ft | 188 kts | 66° |
| 2026-05-04 19:27 | 27.99880 | -16.70342 | 2083 ft | 187 kts | 66° |
| 2026-05-04 19:27 | 28.00347 | -16.69004 | 2020 ft | 176 kts | 64° |
| 2026-05-04 19:27 | 28.00781 | -16.67759 | 1840 ft | 168 kts | 64° |
| 2026-05-04 19:28 | 28.01217 | -16.66513 | 1624 ft | 170 kts | 67° |
| 2026-05-04 19:28 | 28.01640 | -16.65299 | 1420 ft | 156 kts | 65° |
| 2026-05-04 19:28 | 28.02017 | -16.64217 | 1207 ft | 139 kts | 66° |
| 2026-05-04 19:28 | 28.02366 | -16.63218 | 1039 ft | 134 kts | 66° |
| 2026-05-04 19:29 | 28.02703 | -16.62254 | 859 ft | 130 kts | 71° |
| 2026-05-04 19:29 | 28.03037 | -16.61300 | 708 ft | 129 kts | 70° |
| 2026-05-04 19:29 | 28.03366 | -16.60355 | 535 ft | 130 kts | 73° |
| 2026-05-04 19:29 | 28.03696 | -16.59411 | 369 ft | 129 kts | 71° |
| 2026-05-04 19:30 | 28.04023 | -16.58471 | 205 ft | 127 kts | 71° |
| 2026-05-04 19:30 | 28.04270 | -16.57734 | 198 ft | 60 kts | 66° |
| 2026-05-04 19:30 | 28.04387 | -16.57413 | 198 ft | 43 kts | 69° |
| 2026-05-04 19:30 | 28.04491 | -16.57124 | 199 ft | 30 kts | 63° |
| 2026-05-04 19:31 | 28.04581 | -16.56973 | 205 ft | 17 kts | 50° |
| 2026-05-04 19:31 | 28.04653 | -16.56881 | 214 ft | 14 kts | 48° |
| 2026-05-04 19:31 | 28.04706 | -16.56814 | 216 ft | 10 kts | 45° |
| 2026-05-04 19:31 | 28.04756 | -16.56800 | 219 ft | 5 kts | 348° |
| 2026-05-04 19:32 | 28.04778 | -16.56834 | 219 ft | 11 kts | 288° |
| 2026-05-04 19:32 | 28.04749 | -16.56943 | 221 ft | 14 kts | 247° |
| 2026-05-04 19:32 | 28.04715 | -16.57037 | 222 ft | 12 kts | 248° |
| 2026-05-04 19:32 | 28.04680 | -16.57124 | 223 ft | 14 kts | 243° |
| 2026-05-04 19:33 | 28.04645 | -16.57212 | 224 ft | 12 kts | 247° |
| 2026-05-04 19:33 | 28.04616 | -16.57294 | 224 ft | 11 kts | 248° |
| 2026-05-04 19:33 | 28.04589 | -16.57372 | 224 ft | 10 kts | 248° |
| 2026-05-04 19:33 | 28.04581 | -16.57440 | 223 ft | 8 kts | 299° |
| 2026-05-04 19:34 | 28.04627 | -16.57469 | 224 ft | 7 kts | 340° |
| 2026-05-04 19:34 | 28.04667 | -16.57492 | 226 ft | 10 kts | 319° |
| 2026-05-04 19:34 | 28.04654 | -16.57587 | 225 ft | 12 kts | 264° |
| 2026-05-04 19:34 | 28.04691 | -16.57613 | 225 ft | 5 kts | 342° |
| 2026-05-04 19:35 | 28.04716 | -16.57624 | 227 ft | 3 kts | 338° |
| 2026-05-04 19:35 | 28.04730 | -16.57630 | 227 ft | 0 kts | 339° |